createdAt,value
2022-09-17T00:00:37.878Z,11.37
2022-09-17T00:01:37.906Z,11.44
2022-09-17T00:02:37.932Z,11.41
2022-09-17T00:03:37.857Z,11.40
2022-09-17T00:04:37.845Z,11.45
2022-09-17T00:05:37.844Z,11.43
2022-09-17T00:06:37.828Z,11.43
2022-09-17T00:07:37.925Z,11.51
2022-09-17T00:08:37.813Z,11.43
2022-09-17T00:09:37.806Z,11.44
2022-09-17T00:10:37.801Z,11.51
2022-09-17T00:11:37.792Z,11.45
2022-09-17T00:12:37.811Z,11.43
2022-09-17T00:13:37.778Z,11.48
2022-09-17T00:14:37.772Z,11.50
2022-09-17T00:15:37.766Z,11.40
2022-09-17T00:16:37.798Z,11.48
2022-09-17T00:17:37.774Z,11.44
2022-09-17T00:18:37.746Z,11.47
2022-09-17T00:19:37.736Z,11.44
2022-09-17T00:20:37.733Z,11.41
2022-09-17T00:21:37.720Z,11.48
2022-09-17T00:22:37.741Z,11.47
2022-09-17T00:23:37.785Z,11.40
2022-09-17T00:24:37.695Z,11.40
2022-09-17T00:25:37.689Z,11.43
2022-09-17T00:26:37.680Z,11.47
2022-09-17T00:27:37.696Z,11.35
2022-09-17T00:28:37.663Z,11.36
2022-09-17T00:29:37.660Z,11.35
2022-09-17T00:30:37.651Z,11.45
2022-09-17T00:31:37.710Z,11.48
2022-09-17T00:32:37.659Z,11.35
2022-09-17T00:33:37.626Z,11.40
2022-09-17T00:34:37.620Z,11.32
2022-09-17T00:35:37.610Z,11.36
2022-09-17T00:36:37.597Z,11.30
2022-09-17T00:37:37.624Z,11.41
2022-09-17T00:38:37.587Z,11.26
2022-09-17T00:39:37.658Z,11.19
2022-09-17T00:40:37.633Z,11.30
2022-09-17T00:41:37.566Z,11.32
2022-09-17T00:42:37.579Z,11.41
2022-09-17T00:43:37.554Z,11.36
2022-09-17T00:44:37.544Z,11.41
2022-09-17T00:45:39.825Z,11.37
2022-09-17T00:46:37.560Z,11.45
2022-09-17T00:47:37.548Z,11.45
2022-09-17T00:48:37.508Z,11.43
2022-09-17T00:49:37.499Z,11.43
2022-09-17T00:50:37.494Z,11.41
2022-09-17T00:51:37.484Z,11.41
2022-09-17T00:52:37.498Z,11.37
2022-09-17T00:53:37.468Z,11.29
2022-09-17T00:54:37.460Z,11.32
2022-09-17T00:55:37.526Z,11.35
2022-09-17T00:56:37.447Z,11.37
2022-09-17T00:57:37.462Z,11.32
2022-09-17T00:58:41.127Z,11.33
2022-09-17T00:59:38.421Z,11.35
2022-09-17T01:00:37.422Z,11.32
2022-09-17T01:01:37.460Z,11.25
2022-09-17T01:02:37.422Z,11.33
2022-09-17T01:03:37.508Z,11.30
2022-09-17T01:04:37.383Z,11.33
2022-09-17T01:05:37.376Z,11.29
2022-09-17T01:06:37.369Z,11.40
2022-09-17T01:07:37.385Z,11.32
2022-09-17T01:08:37.350Z,11.27
2022-09-17T01:09:37.338Z,11.33
2022-09-17T01:10:37.336Z,11.36
2022-09-17T01:11:37.403Z,11.33
2022-09-17T01:12:37.347Z,11.23
2022-09-17T01:13:37.312Z,11.22
2022-09-17T01:14:37.309Z,11.18
2022-09-17T01:15:37.299Z,11.30
2022-09-17T01:16:37.961Z,11.27
2022-09-17T01:17:37.302Z,11.19
2022-09-17T01:19:09.840Z,11.33
2022-09-17T01:19:37.267Z,11.29
2022-09-17T01:20:37.265Z,11.27
2022-09-17T01:21:37.247Z,11.43
2022-09-17T01:22:37.270Z,11.23
2022-09-17T01:23:37.232Z,11.33
2022-09-17T01:24:37.231Z,11.37
2022-09-17T01:25:37.218Z,11.33
2022-09-17T01:26:37.237Z,11.32
2022-09-17T01:27:37.309Z,11.30
2022-09-17T01:28:37.197Z,11.26
2022-09-17T01:29:37.194Z,11.40
2022-09-17T01:30:37.184Z,11.27
2022-09-17T01:31:37.256Z,11.32
2022-09-17T01:32:37.195Z,11.25
2022-09-17T01:33:37.163Z,11.27
2022-09-17T01:34:37.151Z,11.35
2022-09-17T01:35:37.146Z,11.32
2022-09-17T01:36:37.144Z,11.35
2022-09-17T01:37:37.160Z,11.25
2022-09-17T01:38:37.127Z,11.29
2022-09-17T01:39:37.118Z,11.32
2022-09-17T01:40:37.132Z,11.30
2022-09-17T01:41:37.098Z,11.25
2022-09-17T01:42:37.094Z,11.19
2022-09-17T01:43:37.190Z,11.26
2022-09-17T01:44:37.081Z,11.17
2022-09-17T01:45:37.072Z,11.18
2022-09-17T01:46:37.105Z,11.25
2022-09-17T01:47:37.054Z,11.23
2022-09-17T01:48:37.074Z,11.17
2022-09-17T01:49:37.046Z,11.25
2022-09-17T01:50:37.034Z,11.25
2022-09-17T01:51:37.023Z,11.10
2022-09-17T01:52:37.044Z,11.22
2022-09-17T01:53:37.008Z,11.23
2022-09-17T01:54:40.426Z,11.18
2022-09-17T01:55:38.997Z,11.12
2022-09-17T01:56:36.984Z,11.10
2022-09-17T01:57:37.005Z,11.04
2022-09-17T01:58:36.969Z,11.10
2022-09-17T01:59:37.041Z,11.14
2022-09-17T02:00:36.989Z,11.14
2022-09-17T02:01:37.027Z,11.12
2022-09-17T02:02:36.964Z,11.10
2022-09-17T02:03:36.937Z,11.12
2022-09-17T02:04:36.925Z,11.08
2022-09-17T02:05:36.917Z,11.15
2022-09-17T02:06:36.906Z,11.10
2022-09-17T02:07:36.933Z,11.11
2022-09-17T02:08:36.888Z,11.19
2022-09-17T02:09:36.886Z,11.23
2022-09-17T02:10:36.880Z,11.19
2022-09-17T02:11:36.870Z,11.08
2022-09-17T02:12:36.895Z,11.14
2022-09-17T02:13:36.852Z,11.19
2022-09-17T02:14:36.848Z,11.27
2022-09-17T02:15:36.910Z,11.23
2022-09-17T02:16:36.875Z,11.23
2022-09-17T02:17:36.819Z,11.23
2022-09-17T02:18:36.836Z,11.26
2022-09-17T02:19:36.803Z,11.29
2022-09-17T02:20:36.801Z,11.26
2022-09-17T02:21:36.792Z,11.17
2022-09-17T02:22:36.784Z,11.19
2022-09-17T02:23:36.798Z,11.35
2022-09-17T02:24:36.758Z,11.25
2022-09-17T02:25:36.754Z,11.26
2022-09-17T02:26:36.747Z,11.32
2022-09-17T02:27:36.736Z,11.26
2022-09-17T02:28:36.760Z,11.23
2022-09-17T02:29:36.722Z,11.22
2022-09-17T02:30:36.713Z,11.27
2022-09-17T02:31:36.822Z,11.23
2022-09-17T02:32:36.700Z,11.27
2022-09-17T02:33:36.713Z,11.19
2022-09-17T02:34:36.683Z,11.26
2022-09-17T02:35:36.680Z,11.14
2022-09-17T02:36:36.670Z,11.05
2022-09-17T02:37:36.664Z,11.11
2022-09-17T02:38:36.679Z,11.25
2022-09-17T02:39:36.646Z,11.22
2022-09-17T02:40:36.694Z,11.22
2022-09-17T02:41:36.631Z,11.22
2022-09-17T02:42:36.627Z,11.29
2022-09-17T02:43:36.645Z,11.23
2022-09-17T02:44:36.612Z,11.25
2022-09-17T02:45:36.605Z,11.23
2022-09-17T02:46:36.604Z,11.26
2022-09-17T02:47:36.670Z,11.33
2022-09-17T02:48:36.608Z,11.30
2022-09-17T02:49:36.572Z,11.26
2022-09-17T02:50:36.562Z,11.18
2022-09-17T02:51:36.558Z,11.08
2022-09-17T02:52:36.547Z,11.18
2022-09-17T02:53:36.573Z,11.30
2022-09-17T02:54:36.531Z,11.29
2022-09-17T02:55:36.529Z,11.22
2022-09-17T02:56:36.521Z,11.26
2022-09-17T02:57:36.547Z,11.25
2022-09-17T02:58:36.517Z,11.22
2022-09-17T02:59:36.499Z,11.14
2022-09-17T03:00:36.549Z,11.18
2022-09-17T03:01:36.517Z,11.25
2022-09-17T03:02:36.516Z,11.22
2022-09-17T03:03:36.555Z,11.27
2022-09-17T03:04:36.468Z,11.33
2022-09-17T03:05:36.462Z,11.27
2022-09-17T03:06:36.458Z,11.33
2022-09-17T03:07:36.451Z,11.22
2022-09-17T03:08:36.469Z,11.27
2022-09-17T03:09:36.427Z,11.35
2022-09-17T03:10:36.422Z,11.36
2022-09-17T03:11:36.414Z,11.26
2022-09-17T03:12:36.409Z,11.25
2022-09-17T03:13:36.421Z,11.27
2022-09-17T03:14:36.393Z,11.35
2022-09-17T03:15:36.381Z,11.33
2022-09-17T03:16:36.440Z,11.30
2022-09-17T03:17:36.359Z,11.44
2022-09-17T03:18:36.394Z,11.32
2022-09-17T03:19:36.430Z,11.40
2022-09-17T03:20:36.343Z,11.32
2022-09-17T03:21:36.336Z,11.40
2022-09-17T03:22:36.336Z,11.32
2022-09-17T03:23:36.593Z,11.26
2022-09-17T03:24:36.311Z,11.30
2022-09-17T03:25:36.303Z,11.29
2022-09-17T03:26:36.299Z,11.25
2022-09-17T03:27:36.291Z,11.27
2022-09-17T03:28:36.311Z,11.26
2022-09-17T03:29:36.288Z,11.30
2022-09-17T03:30:36.277Z,11.25
2022-09-17T03:31:36.327Z,11.29
2022-09-17T03:32:36.257Z,11.33
2022-09-17T03:33:36.267Z,11.36
2022-09-17T03:34:36.241Z,11.37
2022-09-17T03:35:36.300Z,11.35
2022-09-17T03:36:37.220Z,11.36
2022-09-17T03:37:36.213Z,11.37
2022-09-17T03:38:36.235Z,11.32
2022-09-17T03:39:36.199Z,11.36
2022-09-17T03:40:36.262Z,11.41
2022-09-17T03:41:36.184Z,11.43
2022-09-17T03:42:36.181Z,11.40
2022-09-17T03:43:36.195Z,11.48
2022-09-17T03:44:36.163Z,11.36
2022-09-17T03:45:36.154Z,11.44
2022-09-17T03:46:36.271Z,11.35
2022-09-17T03:47:36.145Z,11.47
2022-09-17T03:48:36.161Z,11.43
2022-09-17T03:49:36.136Z,11.41
2022-09-17T03:50:36.124Z,11.43
2022-09-17T03:51:36.198Z,11.59
2022-09-17T03:52:36.108Z,11.43
2022-09-17T03:53:36.125Z,11.44
2022-09-17T03:54:36.093Z,11.45
2022-09-17T03:55:36.079Z,11.41
2022-09-17T03:56:36.074Z,11.44
2022-09-17T03:57:36.068Z,11.37
2022-09-17T03:58:36.085Z,11.47
2022-09-17T03:59:36.054Z,11.36
2022-09-17T04:00:36.046Z,11.41
2022-09-17T04:01:36.128Z,11.44
2022-09-17T04:02:36.177Z,11.47
2022-09-17T04:03:36.047Z,11.48
2022-09-17T04:04:36.013Z,11.50
2022-09-17T04:05:36.017Z,11.55
2022-09-17T04:06:36.001Z,11.50
2022-09-17T04:07:36.071Z,11.43
2022-09-17T04:08:36.013Z,11.50
2022-09-17T04:09:35.976Z,11.45
2022-09-17T04:10:35.971Z,11.44
2022-09-17T04:11:35.959Z,11.48
2022-09-17T04:12:35.952Z,11.43
2022-09-17T04:13:35.975Z,11.52
2022-09-17T04:14:35.936Z,11.48
2022-09-17T04:15:35.928Z,11.52
2022-09-17T04:16:36.011Z,11.54
2022-09-17T04:17:35.908Z,11.54
2022-09-17T04:18:35.929Z,11.59
2022-09-17T04:19:35.897Z,11.51
2022-09-17T04:20:35.885Z,11.40
2022-09-17T04:21:35.884Z,11.40
2022-09-17T04:22:35.876Z,11.55
2022-09-17T04:23:35.968Z,11.51
2022-09-17T04:24:35.857Z,11.48
2022-09-17T04:25:35.853Z,11.48
2022-09-17T04:26:35.843Z,11.40
2022-09-17T04:27:35.831Z,11.48
2022-09-17T04:28:35.851Z,11.57
2022-09-17T04:29:35.826Z,11.55
2022-09-17T04:30:35.807Z,11.55
2022-09-17T04:31:35.857Z,11.52
2022-09-17T04:32:35.800Z,11.54
2022-09-17T04:33:35.817Z,11.57
2022-09-17T04:34:35.782Z,11.48
2022-09-17T04:35:35.779Z,11.59
2022-09-17T04:36:35.765Z,11.52
2022-09-17T04:37:35.763Z,11.55
2022-09-17T04:38:35.776Z,11.66
2022-09-17T04:39:35.824Z,11.60
2022-09-17T04:40:35.822Z,11.66
2022-09-17T04:41:35.732Z,11.59
2022-09-17T04:42:35.721Z,11.45
2022-09-17T04:43:35.738Z,11.60
2022-09-17T04:44:35.710Z,11.60
2022-09-17T04:45:35.693Z,11.66
2022-09-17T04:46:35.750Z,11.69
2022-09-17T04:47:35.681Z,11.65
2022-09-17T04:48:35.700Z,11.60
2022-09-17T04:49:35.668Z,11.59
2022-09-17T04:50:35.657Z,11.48
2022-09-17T04:51:35.652Z,11.48
2022-09-17T04:52:35.643Z,11.63
2022-09-17T04:53:35.667Z,11.47
2022-09-17T04:54:35.630Z,11.55
2022-09-17T04:55:35.701Z,11.44
2022-09-17T04:56:35.611Z,11.59
2022-09-17T04:57:35.608Z,11.51
2022-09-17T04:58:35.621Z,11.52
2022-09-17T04:59:35.587Z,11.57
2022-09-17T05:00:35.712Z,11.57
2022-09-17T05:01:35.580Z,11.41
2022-09-17T05:02:35.564Z,11.62
2022-09-17T05:03:35.589Z,11.60
2022-09-17T05:04:35.551Z,11.52
2022-09-17T05:05:35.545Z,11.55
2022-09-17T05:06:35.541Z,11.57
2022-09-17T05:07:35.538Z,11.50
2022-09-17T05:08:35.553Z,11.50
2022-09-17T05:09:35.515Z,11.55
2022-09-17T05:10:35.506Z,11.65
2022-09-17T05:11:35.583Z,11.63
2022-09-17T05:12:35.499Z,11.55
2022-09-17T05:13:35.512Z,11.44
2022-09-17T05:14:35.476Z,11.60
2022-09-17T05:15:35.469Z,11.57
2022-09-17T05:16:35.489Z,11.62
2022-09-17T05:17:35.456Z,11.55
2022-09-17T05:18:35.465Z,11.63
2022-09-17T05:19:36.438Z,11.55
2022-09-17T05:20:35.431Z,11.60
2022-09-17T05:21:35.421Z,11.60
2022-09-17T05:22:35.424Z,11.54
2022-09-17T05:23:35.432Z,11.60
2022-09-17T05:24:35.393Z,11.59
2022-09-17T05:25:35.395Z,11.66
2022-09-17T05:26:35.380Z,11.65
2022-09-17T05:27:35.452Z,11.65
2022-09-17T05:28:35.402Z,11.52
2022-09-17T05:29:35.364Z,11.72
2022-09-17T05:30:35.356Z,11.65
2022-09-17T05:31:35.433Z,11.73
2022-09-17T05:32:35.340Z,11.68
2022-09-17T05:33:35.358Z,11.75
2022-09-17T05:34:35.332Z,11.72
2022-09-17T05:35:35.322Z,11.69
2022-09-17T05:36:35.307Z,11.65
2022-09-17T05:37:35.303Z,11.69
2022-09-17T05:38:35.321Z,11.72
2022-09-17T05:39:35.288Z,11.84
2022-09-17T05:40:35.377Z,11.80
2022-09-17T05:41:35.271Z,11.84
2022-09-17T05:42:35.267Z,11.81
2022-09-17T05:43:35.360Z,11.84
2022-09-17T05:44:35.236Z,11.86
2022-09-17T05:45:36.238Z,11.84
2022-09-17T05:46:35.318Z,11.87
2022-09-17T05:47:35.230Z,11.75
2022-09-17T05:48:35.258Z,11.84
2022-09-17T05:49:35.216Z,12.02
2022-09-17T05:50:35.214Z,11.97
2022-09-17T05:51:35.200Z,12.03
2022-09-17T05:52:35.187Z,12.06
2022-09-17T05:53:35.187Z,12.10
2022-09-17T05:54:35.211Z,12.17
2022-09-17T05:55:35.167Z,12.12
2022-09-17T05:56:35.155Z,12.12
2022-09-17T05:57:35.147Z,12.07
2022-09-17T05:58:35.168Z,12.28
2022-09-17T05:59:35.214Z,12.21
2022-09-17T06:00:35.129Z,12.15
2022-09-17T06:01:35.147Z,12.07
2022-09-17T06:02:35.169Z,12.09
2022-09-17T06:03:35.125Z,12.18
2022-09-17T06:04:35.306Z,12.18
2022-09-17T06:05:35.086Z,12.27
2022-09-17T06:06:35.086Z,12.13
2022-09-17T06:07:35.067Z,12.13
2022-09-17T06:08:35.091Z,12.28
2022-09-17T06:09:35.058Z,12.36
2022-09-17T06:10:35.045Z,12.58
2022-09-17T06:11:35.039Z,12.62
2022-09-17T06:12:35.036Z,13.11
2022-09-17T06:13:35.054Z,13.41
2022-09-17T06:14:35.012Z,13.67
2022-09-17T06:15:35.083Z,13.53
2022-09-17T06:16:35.064Z,13.23
2022-09-17T06:17:34.998Z,13.20
2022-09-17T06:18:35.010Z,13.04
2022-09-17T06:19:34.973Z,12.85
2022-09-17T06:20:34.974Z,12.67
2022-09-17T06:21:34.962Z,12.64
2022-09-17T06:22:34.954Z,12.46
2022-09-17T06:23:34.967Z,12.37
2022-09-17T06:24:34.933Z,12.36
2022-09-17T06:25:34.928Z,12.39
2022-09-17T06:26:34.923Z,12.35
2022-09-17T06:27:34.912Z,12.27
2022-09-17T06:28:39.165Z,12.28
2022-09-17T06:29:36.902Z,12.24
2022-09-17T06:30:34.894Z,12.22
2022-09-17T06:31:35.035Z,12.21
2022-09-17T06:32:34.874Z,12.25
2022-09-17T06:33:34.893Z,12.32
2022-09-17T06:34:34.859Z,12.29
2022-09-17T06:35:34.847Z,12.36
2022-09-17T06:36:34.839Z,12.54
2022-09-17T06:37:34.835Z,13.22
2022-09-17T06:38:34.852Z,14.26
2022-09-17T06:39:34.815Z,15.10
2022-09-17T06:40:34.862Z,14.92
2022-09-17T06:41:34.806Z,14.70
2022-09-17T06:42:34.792Z,14.36
2022-09-17T06:43:34.814Z,14.18
2022-09-17T06:44:34.783Z,14.03
2022-09-17T06:45:34.772Z,13.96
2022-09-17T06:46:34.857Z,13.92
2022-09-17T06:47:34.838Z,14.03
2022-09-17T06:48:34.774Z,14.00
2022-09-17T06:49:34.756Z,14.05
2022-09-17T06:50:37.273Z,14.18
2022-09-17T06:51:34.729Z,14.18
2022-09-17T06:52:34.722Z,14.11
2022-09-17T06:53:34.741Z,14.11
2022-09-17T06:54:34.705Z,13.93
2022-09-17T06:55:34.695Z,13.65
2022-09-17T06:56:34.688Z,13.67
2022-09-17T06:57:34.678Z,13.52
2022-09-17T06:58:34.701Z,13.52
2022-09-17T06:59:34.675Z,13.42
2022-09-17T07:00:34.748Z,13.30
2022-09-17T07:01:34.727Z,13.05
2022-09-17T07:02:34.642Z,13.20
2022-09-17T07:03:34.741Z,13.23
2022-09-17T07:04:34.620Z,13.86
2022-09-17T07:05:34.625Z,15.19
2022-09-17T07:06:34.619Z,15.58
2022-09-17T07:07:34.621Z,16.43
2022-09-17T07:08:34.655Z,16.61
2022-09-17T07:09:34.608Z,17.08
2022-09-17T07:10:34.572Z,17.92
2022-09-17T07:11:34.574Z,17.49
2022-09-17T07:12:34.567Z,17.49
2022-09-17T07:13:34.557Z,18.08
2022-09-17T07:14:34.573Z,18.77
2022-09-17T07:15:34.536Z,19.48
2022-09-17T07:16:34.543Z,20.25
2022-09-17T07:17:34.522Z,20.82
2022-09-17T07:18:34.515Z,21.18
2022-09-17T07:19:34.611Z,21.43
2022-09-17T07:20:34.501Z,21.50
2022-09-17T07:21:34.490Z,21.46
2022-09-17T07:22:34.488Z,21.79
2022-09-17T07:23:34.483Z,21.76
2022-09-17T07:24:34.494Z,21.64
2022-09-17T07:25:34.473Z,20.22
2022-09-17T07:26:34.460Z,19.19
2022-09-17T07:27:34.459Z,17.92
2022-09-17T07:28:34.445Z,16.84
2022-09-17T07:29:34.457Z,16.17
2022-09-17T07:30:34.427Z,15.59
2022-09-17T07:31:34.508Z,15.51
2022-09-17T07:32:34.410Z,16.50
2022-09-17T07:33:34.409Z,16.61
2022-09-17T07:34:34.416Z,17.29
2022-09-17T07:35:34.461Z,17.38
2022-09-17T07:36:34.382Z,17.87
2022-09-17T07:37:34.380Z,18.34
2022-09-17T07:38:34.360Z,18.99
2022-09-17T07:39:34.382Z,19.79
2022-09-17T07:40:34.465Z,19.82
2022-09-17T07:41:34.343Z,19.41
2022-09-17T07:42:34.338Z,19.67
2022-09-17T07:43:34.328Z,19.63
2022-09-17T07:44:34.349Z,19.36
2022-09-17T07:45:34.314Z,19.76
2022-09-17T07:46:34.343Z,20.55
2022-09-17T07:47:34.304Z,20.95
2022-09-17T07:48:34.289Z,20.62
2022-09-17T07:49:34.314Z,20.21
2022-09-17T07:50:34.278Z,19.94
2022-09-17T07:51:34.347Z,19.71
2022-09-17T07:52:34.264Z,19.22
2022-09-17T07:53:34.256Z,18.18
2022-09-17T07:54:34.268Z,17.80
2022-09-17T07:55:34.241Z,18.13
2022-09-17T07:56:34.228Z,18.37
2022-09-17T07:57:34.227Z,17.95
2022-09-17T07:58:34.216Z,17.70
2022-09-17T07:59:34.236Z,19.12
2022-09-17T08:00:34.201Z,19.69
2022-09-17T08:01:34.244Z,19.11
2022-09-17T08:02:34.267Z,19.49
2022-09-17T08:03:34.176Z,18.95
2022-09-17T08:04:34.196Z,19.51
2022-09-17T08:05:34.169Z,18.90
2022-09-17T08:06:34.160Z,18.05
2022-09-17T08:07:34.223Z,17.79
2022-09-17T08:08:34.147Z,19.04
2022-09-17T08:09:34.152Z,19.09
2022-09-17T08:10:34.124Z,18.59
2022-09-17T08:12:36.113Z,18.04
2022-09-17T08:13:34.103Z,17.72
2022-09-17T08:14:34.125Z,17.38
2022-09-17T08:15:34.092Z,16.86
2022-09-17T08:16:34.169Z,16.71
2022-09-17T08:17:34.078Z,16.75
2022-09-17T08:18:34.065Z,16.61
2022-09-17T08:19:34.078Z,16.66
2022-09-17T08:20:34.054Z,16.68
2022-09-17T08:21:34.047Z,16.47
2022-09-17T08:22:34.032Z,16.17
2022-09-17T08:23:34.106Z,16.04
2022-09-17T08:24:34.051Z,15.92
2022-09-17T08:25:34.010Z,16.00
2022-09-17T08:26:34.010Z,15.98
2022-09-17T08:27:34.003Z,16.10
2022-09-17T08:28:33.992Z,16.08
2022-09-17T08:29:35.378Z,15.94
2022-09-17T08:30:34.977Z,16.81
2022-09-17T08:31:34.010Z,17.63
2022-09-17T08:32:33.956Z,18.28
2022-09-17T08:33:33.973Z,18.75
2022-09-17T08:34:33.944Z,19.02
2022-09-17T08:35:33.956Z,19.76
2022-09-17T08:36:33.927Z,20.07
2022-09-17T08:37:33.919Z,20.16
2022-09-17T08:38:37.920Z,19.86
2022-09-17T08:39:34.984Z,19.76
2022-09-17T08:40:33.971Z,19.88
2022-09-17T08:41:33.893Z,19.82
2022-09-17T08:42:33.882Z,18.93
2022-09-17T08:43:33.871Z,18.07
2022-09-17T08:44:33.869Z,17.22
2022-09-17T08:45:33.883Z,16.99
2022-09-17T08:46:33.908Z,17.80
2022-09-17T08:47:33.840Z,18.38
2022-09-17T08:48:33.830Z,18.95
2022-09-17T08:49:33.827Z,19.44
2022-09-17T08:50:33.848Z,19.88
2022-09-17T08:51:33.821Z,20.36
2022-09-17T08:52:33.810Z,21.03
2022-09-17T08:53:33.797Z,21.73
2022-09-17T08:54:34.411Z,21.11
2022-09-17T08:55:33.881Z,20.52
2022-09-17T08:56:33.775Z,19.58
2022-09-17T08:57:33.765Z,18.18
2022-09-17T08:58:33.769Z,17.41
2022-09-17T08:59:33.753Z,17.05
2022-09-17T09:00:33.774Z,16.57
2022-09-17T09:01:33.775Z,16.08
2022-09-17T09:02:33.855Z,15.79
2022-09-17T09:03:33.726Z,15.75
2022-09-17T09:04:33.723Z,15.51
2022-09-17T09:05:33.737Z,15.39
2022-09-17T09:06:33.706Z,15.39
2022-09-17T09:07:33.697Z,15.49
2022-09-17T09:08:33.686Z,15.57
2022-09-17T09:09:33.684Z,15.68
2022-09-17T09:10:33.698Z,15.76
2022-09-17T09:11:33.748Z,15.75
2022-09-17T09:12:33.656Z,15.62
2022-09-17T09:13:33.650Z,15.58
2022-09-17T09:14:33.645Z,15.73
2022-09-17T09:15:33.667Z,15.82
2022-09-17T09:16:33.688Z,16.33
2022-09-17T09:17:33.627Z,16.51
2022-09-17T09:18:33.617Z,16.42
2022-09-17T09:19:33.610Z,16.54
2022-09-17T09:20:33.624Z,16.53
2022-09-17T09:21:33.590Z,16.42
2022-09-17T09:22:33.586Z,16.53
2022-09-17T09:23:33.581Z,16.61
2022-09-17T09:24:33.570Z,16.69
2022-09-17T09:25:33.588Z,16.65
2022-09-17T09:26:33.560Z,16.56
2022-09-17T09:27:33.624Z,16.31
2022-09-17T09:28:33.539Z,16.04
2022-09-17T09:29:33.533Z,15.88
2022-09-17T09:30:33.556Z,15.61
2022-09-17T09:31:33.573Z,15.46
2022-09-17T09:32:33.508Z,15.76
2022-09-17T09:33:33.498Z,15.84
2022-09-17T09:34:33.488Z,16.60
2022-09-17T09:35:33.509Z,17.24
2022-09-17T09:36:33.478Z,17.70
2022-09-17T09:37:33.467Z,18.35
2022-09-17T09:38:33.462Z,18.59
2022-09-17T09:39:40.198Z,19.09
2022-09-17T09:40:35.554Z,19.16
2022-09-17T09:41:33.437Z,19.22
2022-09-17T09:42:33.436Z,19.44
2022-09-17T09:43:59.620Z,19.48
2022-09-17T09:44:35.417Z,19.58
2022-09-17T09:45:33.445Z,19.64
2022-09-17T09:46:33.433Z,19.62
2022-09-17T09:47:33.398Z,19.63
2022-09-17T09:48:33.390Z,19.52
2022-09-17T09:49:33.385Z,19.08
2022-09-17T09:50:54.684Z,18.71
2022-09-17T09:51:35.391Z,18.40
2022-09-17T09:52:33.360Z,18.03
2022-09-17T09:53:33.349Z,17.68
2022-09-17T09:54:34.043Z,17.46
2022-09-17T09:55:33.335Z,17.33
2022-09-17T09:56:33.358Z,16.94
2022-09-17T09:57:33.321Z,16.68
2022-09-17T09:58:33.317Z,16.31
2022-09-17T09:59:33.475Z,16.08
2022-09-17T10:00:33.303Z,16.15
2022-09-17T10:01:33.353Z,16.13
2022-09-17T10:02:33.390Z,15.72
2022-09-17T10:03:33.287Z,15.94
2022-09-17T10:04:33.273Z,16.15
2022-09-17T10:05:33.266Z,16.38
2022-09-17T10:06:33.278Z,16.54
2022-09-17T10:07:33.252Z,16.76
2022-09-17T10:08:33.247Z,16.74
2022-09-17T10:09:33.238Z,16.76
2022-09-17T10:10:33.228Z,16.38
2022-09-17T10:11:33.247Z,16.43
2022-09-17T10:12:33.215Z,16.56
2022-09-17T10:13:33.201Z,16.66
2022-09-17T10:14:33.195Z,16.81
2022-09-17T10:15:33.269Z,16.93
2022-09-17T10:16:33.291Z,16.68
2022-09-17T10:17:33.178Z,16.54
2022-09-17T10:18:33.166Z,16.56
2022-09-17T10:19:33.156Z,16.75
2022-09-17T10:20:33.149Z,16.76
2022-09-17T10:21:33.169Z,16.69
2022-09-17T10:22:33.132Z,16.38
2022-09-17T10:23:33.126Z,16.47
2022-09-17T10:24:33.117Z,16.49
2022-09-17T10:25:33.108Z,16.54
2022-09-17T10:26:33.127Z,16.71
2022-09-17T10:27:33.095Z,16.97
2022-09-17T10:28:33.088Z,16.97
2022-09-17T10:29:33.080Z,16.93
2022-09-17T10:30:33.075Z,17.04
2022-09-17T10:31:33.206Z,17.19
2022-09-17T10:32:33.059Z,17.33
2022-09-17T10:33:33.051Z,17.38
2022-09-17T10:34:33.042Z,17.68
2022-09-17T10:35:33.038Z,18.01
2022-09-17T10:36:37.282Z,18.18
2022-09-17T10:37:34.020Z,18.25
2022-09-17T10:38:33.014Z,18.18
2022-09-17T10:39:33.007Z,18.18
2022-09-17T10:40:33.055Z,18.38
2022-09-17T10:41:32.992Z,18.43
2022-09-17T10:42:33.020Z,18.37
2022-09-17T10:43:32.979Z,18.38
2022-09-17T10:44:32.967Z,18.28
2022-09-17T10:45:32.956Z,18.18
2022-09-17T10:46:32.982Z,17.74
2022-09-17T10:47:33.047Z,17.87
2022-09-17T10:48:32.936Z,18.15
2022-09-17T10:49:32.932Z,18.18
2022-09-17T10:50:32.924Z,18.22
2022-09-17T10:51:32.916Z,18.23
2022-09-17T10:52:32.928Z,17.80
2022-09-17T10:53:32.893Z,17.27
2022-09-17T10:54:32.885Z,17.29
2022-09-17T10:55:32.883Z,17.34
2022-09-17T10:56:32.874Z,17.06
2022-09-17T10:57:32.889Z,16.97
2022-09-17T10:58:32.855Z,17.05
2022-09-17T10:59:32.850Z,16.89
2022-09-17T11:00:32.838Z,16.81
2022-09-17T11:01:32.905Z,16.69
2022-09-17T11:02:33.010Z,16.51
2022-09-17T11:03:32.895Z,16.64
2022-09-17T11:04:32.807Z,16.72
2022-09-17T11:05:32.799Z,16.99
2022-09-17T11:06:32.794Z,17.34
2022-09-17T11:07:32.818Z,17.52
2022-09-17T11:08:32.884Z,17.95
2022-09-17T11:09:32.768Z,18.16
2022-09-17T11:10:32.761Z,18.31
2022-09-17T11:11:32.756Z,18.37
2022-09-17T11:12:32.774Z,18.23
2022-09-17T11:13:32.741Z,18.11
2022-09-17T11:14:32.732Z,18.18
2022-09-17T11:15:32.728Z,18.25
2022-09-17T11:16:32.786Z,18.20
2022-09-17T11:17:32.703Z,18.11
2022-09-17T11:18:32.721Z,18.23
2022-09-17T11:19:32.769Z,18.18
2022-09-17T11:20:32.684Z,18.29
2022-09-17T11:21:32.872Z,18.18
2022-09-17T11:22:32.671Z,18.26
2022-09-17T11:23:32.684Z,18.40
2022-09-17T11:24:32.647Z,18.40
2022-09-17T11:25:32.642Z,18.55
2022-09-17T11:26:32.634Z,18.71
2022-09-17T11:27:32.630Z,18.84
2022-09-17T11:28:33.104Z,18.84
2022-09-17T11:29:32.610Z,18.71
2022-09-17T11:30:32.603Z,18.58
2022-09-17T11:31:32.632Z,18.18
2022-09-17T11:32:32.587Z,17.94
2022-09-17T11:33:32.608Z,17.67
2022-09-17T11:34:32.576Z,17.23
2022-09-17T11:35:32.638Z,17.04
2022-09-17T11:36:32.557Z,16.64
2022-09-17T11:37:32.558Z,16.58
2022-09-17T11:38:32.568Z,16.60
2022-09-17T11:39:32.535Z,16.74
2022-09-17T11:40:32.579Z,16.69
2022-09-17T11:41:32.516Z,16.74
2022-09-17T11:42:32.506Z,16.84
2022-09-17T11:43:32.526Z,16.91
2022-09-17T11:44:32.497Z,17.05
2022-09-17T11:45:32.487Z,16.68
2022-09-17T11:46:32.517Z,16.32
2022-09-17T11:47:32.473Z,16.13
2022-09-17T11:48:32.491Z,15.82
2022-09-17T11:49:32.455Z,15.54
2022-09-17T11:50:32.447Z,15.31
2022-09-17T11:51:32.519Z,15.27
2022-09-17T11:52:32.431Z,15.39
2022-09-17T11:53:32.452Z,15.59
2022-09-17T11:54:32.417Z,15.86
2022-09-17T11:55:32.411Z,16.09
2022-09-17T11:56:32.404Z,15.68
2022-09-17T11:57:32.395Z,15.83
2022-09-17T11:58:32.414Z,16.02
2022-09-17T11:59:32.381Z,16.09
2022-09-17T12:00:32.375Z,16.16
2022-09-17T12:01:32.426Z,16.13
2022-09-17T12:02:32.406Z,15.91
2022-09-17T12:03:32.378Z,15.79
2022-09-17T12:04:32.326Z,15.88
2022-09-17T12:05:33.334Z,15.97
2022-09-17T12:06:32.326Z,15.95
2022-09-17T12:07:32.394Z,15.97
2022-09-17T12:08:32.334Z,15.84
2022-09-17T12:09:32.308Z,15.80
2022-09-17T12:10:32.299Z,15.94
2022-09-17T12:11:32.295Z,16.00
2022-09-17T12:12:48.866Z,16.17
2022-09-17T12:13:34.297Z,16.28
2022-09-17T12:14:32.266Z,16.36
2022-09-17T12:15:32.256Z,16.24
2022-09-17T12:16:32.359Z,16.61
2022-09-17T12:17:32.239Z,16.72
2022-09-17T12:18:33.500Z,17.01
2022-09-17T12:19:33.224Z,17.16
2022-09-17T12:20:32.220Z,16.99
2022-09-17T12:21:32.210Z,16.83
2022-09-17T12:22:32.204Z,16.76
2022-09-17T12:23:32.294Z,16.89
2022-09-17T12:24:32.190Z,17.06
2022-09-17T12:25:32.181Z,16.75
2022-09-17T12:26:32.170Z,16.42
2022-09-17T12:27:32.168Z,16.01
2022-09-17T12:28:32.188Z,16.08
2022-09-17T12:29:32.154Z,16.24
2022-09-17T12:30:32.137Z,16.13
2022-09-17T12:31:32.221Z,16.05
2022-09-17T12:32:32.124Z,16.05
2022-09-17T12:33:32.141Z,16.28
2022-09-17T12:34:32.110Z,16.47
2022-09-17T12:35:59.805Z,16.50
2022-09-17T12:36:34.101Z,16.60
2022-09-17T12:37:32.087Z,16.58
2022-09-17T12:38:32.106Z,16.60
2022-09-17T12:39:32.153Z,16.60
2022-09-17T12:40:32.116Z,16.58
2022-09-17T12:41:32.056Z,16.61
2022-09-17T12:42:32.050Z,16.66
2022-09-17T12:43:32.068Z,16.84
2022-09-17T12:44:32.034Z,16.79
2022-09-17T12:45:32.029Z,16.90
2022-09-17T12:46:32.045Z,17.12
2022-09-17T12:47:32.013Z,17.23
2022-09-17T12:48:32.033Z,17.27
2022-09-17T12:49:31.999Z,17.27
2022-09-17T12:50:31.990Z,17.30
2022-09-17T12:51:31.988Z,17.24
2022-09-17T12:52:31.975Z,17.31
2022-09-17T12:53:31.993Z,17.41